sensor_id;sensor_type;location;lat;lon;timestamp;pressure;altitude;pressure_sealevel;temperature;humidity
50282;BME280;36176;51.506;10.272;2023-02-12T00:00:43;101448.56;;;6.57;100.00
50282;BME280;36176;51.506;10.272;2023-02-12T00:03:10;101451.22;;;6.58;100.00
50282;BME280;36176;51.506;10.272;2023-02-12T00:05:38;101450.31;;;6.58;100.00
50282;BME280;36176;51.506;10.272;2023-02-12T00:08:07;101444.16;;;6.53;100.00
50282;BME280;36176;51.506;10.272;2023-02-12T00:10:34;101449.44;;;6.53;100.00
50282;BME280;36176;51.506;10.272;2023-02-12T00:13:01;101454.72;;;6.51;100.00
50282;BME280;36176;51.506;10.272;2023-02-12T00:15:28;101455.59;;;6.52;100.00
50282;BME280;36176;51.506;10.272;2023-02-12T00:17:55;101453.81;;;6.52;100.00
50282;BME280;36176;51.506;10.272;2023-02-12T00:20:22;101449.44;;;6.53;100.00
50282;BME280;36176;51.506;10.272;2023-02-12T00:22:49;101460.84;;;6.50;100.00
50282;BME280;36176;51.506;10.272;2023-02-12T00:25:16;101459.94;;;6.44;100.00
50282;BME280;36176;51.506;10.272;2023-02-12T00:27:44;101466.09;;;6.46;100.00
50282;BME280;36176;51.506;10.272;2023-02-12T00:30:11;101463.47;;;6.50;100.00
50282;BME280;36176;51.506;10.272;2023-02-12T00:32:38;101460.84;;;6.52;100.00
50282;BME280;36176;51.506;10.272;2023-02-12T00:35:06;101464.38;;;6.54;100.00
50282;BME280;36176;51.506;10.272;2023-02-12T00:37:33;101466.13;;;6.58;100.00
50282;BME280;36176;51.506;10.272;2023-02-12T00:40:01;101460.84;;;6.58;100.00
50282;BME280;36176;51.506;10.272;2023-02-12T00:42:28;101463.50;;;6.64;100.00
50282;BME280;36176;51.506;10.272;2023-02-12T00:44:55;101464.38;;;6.66;100.00
50282;BME280;36176;51.506;10.272;2023-02-12T00:47:22;101466.13;;;6.67;100.00
50282;BME280;36176;51.506;10.272;2023-02-12T00:49:49;101455.59;;;6.61;100.00
50282;BME280;36176;51.506;10.272;2023-02-12T00:52:16;101467.88;;;6.62;100.00
50282;BME280;36176;51.506;10.272;2023-02-12T00:54:43;101460.84;;;6.59;100.00
50282;BME280;36176;51.506;10.272;2023-02-12T00:57:10;101460.88;;;6.61;100.00
50282;BME280;36176;51.506;10.272;2023-02-12T00:59:37;101465.25;;;6.57;100.00
50282;BME280;36176;51.506;10.272;2023-02-12T01:02:05;101469.63;;;6.57;100.00
50282;BME280;36176;51.506;10.272;2023-02-12T01:04:32;101473.16;;;6.59;100.00
50282;BME280;36176;51.506;10.272;2023-02-12T01:06:59;101466.13;;;6.61;100.00
50282;BME280;36176;51.506;10.272;2023-02-12T01:09:26;101467.88;;;6.60;100.00
50282;BME280;36176;51.506;10.272;2023-02-12T01:11:53;101467.00;;;6.62;100.00
50282;BME280;36176;51.506;10.272;2023-02-12T01:14:20;101468.75;;;6.58;100.00
50282;BME280;36176;51.506;10.272;2023-02-12T01:16:47;101471.38;;;6.55;100.00
50282;BME280;36176;51.506;10.272;2023-02-12T01:19:14;101470.50;;;6.53;100.00
50282;BME280;36176;51.506;10.272;2023-02-12T01:21:41;101465.22;;;6.56;100.00
50282;BME280;36176;51.506;10.272;2023-02-12T01:24:08;101463.47;;;6.58;100.00
50282;BME280;36176;51.506;10.272;2023-02-12T01:26:36;101464.38;;;6.57;100.00
50282;BME280;36176;51.506;10.272;2023-02-12T01:29:05;101467.88;;;6.57;100.00
50282;BME280;36176;51.506;10.272;2023-02-12T01:31:36;101470.50;;;6.54;100.00
50282;BME280;36176;51.506;10.272;2023-02-12T01:34:05;101471.38;;;6.55;100.00
50282;BME280;36176;51.506;10.272;2023-02-12T01:36:33;101466.13;;;6.58;100.00
50282;BME280;36176;51.506;10.272;2023-02-12T01:39:02;101472.25;;;6.63;100.00
50282;BME280;36176;51.506;10.272;2023-02-12T01:41:33;101468.75;;;6.67;100.00
50282;BME280;36176;51.506;10.272;2023-02-12T01:46:30;101471.41;;;6.67;100.00
50282;BME280;36176;51.506;10.272;2023-02-12T01:48:58;101464.38;;;6.66;100.00
50282;BME280;36176;51.506;10.272;2023-02-12T01:51:27;101461.72;;;6.65;100.00
50282;BME280;36176;51.506;10.272;2023-02-12T01:53:57;101461.72;;;6.65;100.00
50282;BME280;36176;51.506;10.272;2023-02-12T01:56:27;101465.25;;;6.64;100.00
50282;BME280;36176;51.506;10.272;2023-02-12T01:58:55;101464.34;;;6.63;100.00
50282;BME280;36176;51.506;10.272;2023-02-12T02:01:26;101470.50;;;6.60;100.00
50282;BME280;36176;51.506;10.272;2023-02-12T02:03:57;101461.75;;;6.62;100.00
50282;BME280;36176;51.506;10.272;2023-02-12T02:06:30;101467.00;;;6.62;100.00
50282;BME280;36176;51.506;10.272;2023-02-12T02:08:58;101465.25;;;6.64;100.00
50282;BME280;36176;51.506;10.272;2023-02-12T02:11:25;101466.13;;;6.61;100.00
50282;BME280;36176;51.506;10.272;2023-02-12T02:14:11;101460.88;;;6.56;100.00
50282;BME280;36176;51.506;10.272;2023-02-12T02:17:12;101472.25;;;6.55;100.00
50282;BME280;36176;51.506;10.272;2023-02-12T02:23:09;101465.25;;;6.54;100.00
50282;BME280;36176;51.506;10.272;2023-02-12T02:31:33;101461.72;;;6.48;100.00
50282;BME280;36176;51.506;10.272;2023-02-12T02:34:14;101462.59;;;6.47;100.00
50282;BME280;36176;51.506;10.272;2023-02-12T02:36:59;101468.75;;;6.47;100.00
50282;BME280;36176;51.506;10.272;2023-02-12T02:39:37;101467.88;;;6.50;100.00
50282;BME280;36176;51.506;10.272;2023-02-12T02:42:09;101471.38;;;6.49;100.00
50282;BME280;36176;51.506;10.272;2023-02-12T02:44:50;101460.84;;;6.50;100.00
50282;BME280;36176;51.506;10.272;2023-02-12T02:47:21;101466.09;;;6.46;100.00
50282;BME280;36176;51.506;10.272;2023-02-12T02:49:54;101466.09;;;6.46;100.00
50282;BME280;36176;51.506;10.272;2023-02-12T02:52:33;101460.81;;;6.49;100.00
50282;BME280;36176;51.506;10.272;2023-02-12T02:55:05;101460.84;;;6.52;100.00
50282;BME280;36176;51.506;10.272;2023-02-12T02:57:50;101461.72;;;6.52;100.00
50282;BME280;36176;51.506;10.272;2023-02-12T03:00:26;101459.06;;;6.51;100.00
50282;BME280;36176;51.506;10.272;2023-02-12T03:03:01;101465.25;;;6.50;100.00
50282;BME280;36176;51.506;10.272;2023-02-12T03:05:37;101461.72;;;6.46;100.00
50282;BME280;36176;51.506;10.272;2023-02-12T03:08:19;101456.47;;;6.49;100.00
50282;BME280;36176;51.506;10.272;2023-02-12T03:10:55;101460.84;;;6.50;100.00
50282;BME280;36176;51.506;10.272;2023-02-12T03:13:31;101466.13;;;6.52;100.00
50282;BME280;36176;51.506;10.272;2023-02-12T03:16:10;101460.84;;;6.52;100.00
50282;BME280;36176;51.506;10.272;2023-02-12T03:18:58;101463.47;;;6.50;100.00
50282;BME280;36176;51.506;10.272;2023-02-12T03:21:34;101462.59;;;6.50;100.00
50282;BME280;36176;51.506;10.272;2023-02-12T03:24:23;101458.22;;;6.52;100.00
50282;BME280;36176;51.506;10.272;2023-02-12T03:27:02;101456.44;;;6.51;100.00
50282;BME280;36176;51.506;10.272;2023-02-12T03:29:30;101456.44;;;6.46;100.00
50282;BME280;36176;51.506;10.272;2023-02-12T03:32:08;101459.06;;;6.46;100.00
50282;BME280;36176;51.506;10.272;2023-02-12T03:34:57;101458.22;;;6.50;100.00
50282;BME280;36176;51.506;10.272;2023-02-12T03:37:55;101466.97;;;6.48;100.00
50282;BME280;36176;51.506;10.272;2023-02-12T03:43:06;101459.97;;;6.47;100.00
50282;BME280;36176;51.506;10.272;2023-02-12T03:48:22;101465.25;;;6.47;100.00
50282;BME280;36176;51.506;10.272;2023-02-12T03:51:12;101468.75;;;6.50;100.00
50282;BME280;36176;51.506;10.272;2023-02-12T03:53:42;101467.88;;;6.50;100.00
50282;BME280;36176;51.506;10.272;2023-02-12T03:56:13;101462.59;;;6.50;100.00
50282;BME280;36176;51.506;10.272;2023-02-12T03:58:44;101466.97;;;6.48;100.00
50282;BME280;36176;51.506;10.272;2023-02-12T04:01:12;101468.72;;;6.49;100.00
50282;BME280;36176;51.506;10.272;2023-02-12T04:03:40;101472.25;;;6.52;100.00
50282;BME280;36176;51.506;10.272;2023-02-12T04:06:19;101474.00;;;6.50;100.00
50282;BME280;36176;51.506;10.272;2023-02-12T04:08:46;101478.41;;;6.53;100.00
50282;BME280;36176;51.506;10.272;2023-02-12T04:11:24;101478.38;;;6.48;100.00
50282;BME280;36176;51.506;10.272;2023-02-12T04:17:29;101486.31;;;6.47;100.00
50282;BME280;36176;51.506;10.272;2023-02-12T04:20:40;101493.34;;;6.49;100.00
50282;BME280;36176;51.506;10.272;2023-02-12T04:26:20;101494.22;;;6.54;100.00
50282;BME280;36176;51.506;10.272;2023-02-12T04:35:03;101505.63;;;6.50;100.00
50282;BME280;36176;51.506;10.272;2023-02-12T04:37:41;101504.75;;;6.50;100.00
50282;BME280;36176;51.506;10.272;2023-02-12T04:40:12;101506.50;;;6.48;100.00
50282;BME280;36176;51.506;10.272;2023-02-12T04:42:46;101507.34;;;6.44;100.00
50282;BME280;36176;51.506;10.272;2023-02-12T04:45:16;101508.22;;;6.43;100.00
50282;BME280;36176;51.506;10.272;2023-02-12T04:47:46;101513.47;;;6.36;100.00
50282;BME280;36176;51.506;10.272;2023-02-12T04:50:13;101508.22;;;6.38;100.00
50282;BME280;36176;51.506;10.272;2023-02-12T04:52:40;101520.50;;;6.39;100.00
50282;BME280;36176;51.506;10.272;2023-02-12T04:55:07;101509.09;;;6.35;100.00
50282;BME280;36176;51.506;10.272;2023-02-12T04:57:34;101510.84;;;6.33;100.00
50282;BME280;36176;51.506;10.272;2023-02-12T05:00:03;101514.38;;;6.35;100.00
50282;BME280;36176;51.506;10.272;2023-02-12T05:02:34;101518.75;;;6.36;100.00
50282;BME280;36176;51.506;10.272;2023-02-12T05:05:02;101521.38;;;6.38;100.00
50282;BME280;36176;51.506;10.272;2023-02-12T05:07:29;101514.34;;;6.42;100.00
50282;BME280;36176;51.506;10.272;2023-02-12T05:09:56;101523.16;;;6.44;100.00
50282;BME280;36176;51.506;10.272;2023-02-12T05:12:23;101518.78;;;6.46;100.00
50282;BME280;36176;51.506;10.272;2023-02-12T05:14:50;101525.81;;;6.47;100.00
50282;BME280;36176;51.506;10.272;2023-02-12T05:17:17;101522.28;;;6.48;100.00
50282;BME280;36176;51.506;10.272;2023-02-12T05:19:44;101523.16;;;6.48;100.00
50282;BME280;36176;51.506;10.272;2023-02-12T05:22:11;101524.91;;;6.51;100.00
50282;BME280;36176;51.506;10.272;2023-02-12T05:24:38;101522.28;;;6.51;100.00
50282;BME280;36176;51.506;10.272;2023-02-12T05:27:06;101517.03;;;6.49;100.00
50282;BME280;36176;51.506;10.272;2023-02-12T05:29:35;101520.53;;;6.47;100.00
50282;BME280;36176;51.506;10.272;2023-02-12T05:32:03;101520.53;;;6.47;100.00
50282;BME280;36176;51.506;10.272;2023-02-12T05:34:30;101523.19;;;6.47;100.00
50282;BME280;36176;51.506;10.272;2023-02-12T05:36:57;101520.53;;;6.47;100.00
50282;BME280;36176;51.506;10.272;2023-02-12T05:39:25;101520.50;;;6.44;100.00
50282;BME280;36176;51.506;10.272;2023-02-12T05:41:52;101524.91;;;6.43;100.00
50282;BME280;36176;51.506;10.272;2023-02-12T05:44:19;101527.56;;;6.45;100.00
50282;BME280;36176;51.506;10.272;2023-02-12T05:46:46;101529.31;;;6.46;100.00
50282;BME280;36176;51.506;10.272;2023-02-12T05:49:13;101531.06;;;6.47;100.00
50282;BME280;36176;51.506;10.272;2023-02-12T05:51:40;101525.81;;;6.47;100.00
50282;BME280;36176;51.506;10.272;2023-02-12T05:54:08;101528.44;;;6.50;100.00
50282;BME280;36176;51.506;10.272;2023-02-12T05:56:41;101528.47;;;6.51;100.00
50282;BME280;36176;51.506;10.272;2023-02-12T05:59:13;101533.69;;;6.48;100.00
50282;BME280;36176;51.506;10.272;2023-02-12T06:01:43;101527.53;;;6.46;100.00
50282;BME280;36176;51.506;10.272;2023-02-12T06:04:16;101530.19;;;6.46;100.00
50282;BME280;36176;51.506;10.272;2023-02-12T06:06:44;101531.03;;;6.44;100.00
50282;BME280;36176;51.506;10.272;2023-02-12T06:09:12;101538.94;;;6.44;100.00
50282;BME280;36176;51.506;10.272;2023-02-12T06:11:40;101537.19;;;6.43;100.00
50282;BME280;36176;51.506;10.272;2023-02-12T06:14:11;101543.31;;;6.42;100.00
50282;BME280;36176;51.506;10.272;2023-02-12T06:16:39;101545.09;;;6.39;100.00
50282;BME280;36176;51.506;10.272;2023-02-12T06:19:06;101547.72;;;6.43;100.00
50282;BME280;36176;51.506;10.272;2023-02-12T06:21:33;101547.72;;;6.49;100.00
50282;BME280;36176;51.506;10.272;2023-02-12T06:24:00;101550.41;;;6.52;100.00
50282;BME280;36176;51.506;10.272;2023-02-12T06:26:28;101546.00;;;6.55;100.00
50282;BME280;36176;51.506;10.272;2023-02-12T06:28:55;101547.78;;;6.59;100.00
50282;BME280;36176;51.506;10.272;2023-02-12T06:31:27;101548.66;;;6.60;100.00
50282;BME280;36176;51.506;10.272;2023-02-12T06:33:57;101547.78;;;6.63;100.00
50282;BME280;36176;51.506;10.272;2023-02-12T06:36:24;101545.16;;;6.66;100.00
50282;BME280;36176;51.506;10.272;2023-02-12T06:38:52;101566.22;;;6.67;100.00
50282;BME280;36176;51.506;10.272;2023-02-12T06:41:20;101566.22;;;6.67;100.00
50282;BME280;36176;51.506;10.272;2023-02-12T06:43:47;101561.84;;;6.65;100.00
50282;BME280;36176;51.506;10.272;2023-02-12T06:46:14;101562.72;;;6.59;100.00
50282;BME280;36176;51.506;10.272;2023-02-12T06:48:41;101564.41;;;6.51;100.00
50282;BME280;36176;51.506;10.272;2023-02-12T06:51:14;101572.31;;;6.51;100.00
50282;BME280;36176;51.506;10.272;2023-02-12T06:53:42;101573.22;;;6.53;100.00
50282;BME280;36176;51.506;10.272;2023-02-12T06:56:11;101577.63;;;6.54;100.00
50282;BME280;36176;51.506;10.272;2023-02-12T06:58:41;101584.63;;;6.55;100.00
50282;BME280;36176;51.506;10.272;2023-02-12T07:01:14;101579.34;;;6.53;100.00
50282;BME280;36176;51.506;10.272;2023-02-12T07:03:48;101575.84;;;6.56;100.00
50282;BME280;36176;51.506;10.272;2023-02-12T07:06:16;101584.63;;;6.58;100.00
50282;BME280;36176;51.506;10.272;2023-02-12T07:08:43;101590.78;;;6.60;100.00
50282;BME280;36176;51.506;10.272;2023-02-12T07:11:11;101594.31;;;6.60;100.00
50282;BME280;36176;51.506;10.272;2023-02-12T07:13:40;101600.47;;;6.56;100.00
50282;BME280;36176;51.506;10.272;2023-02-12T07:16:10;101597.81;;;6.55;100.00
50282;BME280;36176;51.506;10.272;2023-02-12T07:18:38;101601.28;;;6.51;100.00
50282;BME280;36176;51.506;10.272;2023-02-12T07:21:06;101607.47;;;6.51;100.00
50282;BME280;36176;51.506;10.272;2023-02-12T07:23:34;101604.81;;;6.50;100.00
50282;BME280;36176;51.506;10.272;2023-02-12T07:26:04;101608.34;;;6.55;100.00
50282;BME280;36176;51.506;10.272;2023-02-12T07:28:32;101603.09;;;6.64;100.00
50282;BME280;36176;51.506;10.272;2023-02-12T07:31:05;101602.22;;;6.65;100.00
50282;BME280;36176;51.506;10.272;2023-02-12T07:33:34;101599.59;;;6.62;100.00
50282;BME280;36176;51.506;10.272;2023-02-12T07:36:03;101602.25;;;6.64;100.00
50282;BME280;36176;51.506;10.272;2023-02-12T07:38:31;101605.75;;;6.66;100.00
50282;BME280;36176;51.506;10.272;2023-02-12T07:41:15;101612.78;;;6.68;100.00
50282;BME280;36176;51.506;10.272;2023-02-12T07:43:44;101612.78;;;6.68;100.00
50282;BME280;36176;51.506;10.272;2023-02-12T07:46:14;101615.41;;;6.70;100.00
50282;BME280;36176;51.506;10.272;2023-02-12T07:48:44;101614.53;;;6.69;100.00
50282;BME280;36176;51.506;10.272;2023-02-12T07:51:13;101619.81;;;6.71;100.00
50282;BME280;36176;51.506;10.272;2023-02-12T07:53:41;101621.56;;;6.75;100.00
50282;BME280;36176;51.506;10.272;2023-02-12T07:58:37;101627.75;;;6.81;100.00
50282;BME280;36176;51.506;10.272;2023-02-12T08:01:34;101632.16;;;6.82;100.00
50282;BME280;36176;51.506;10.272;2023-02-12T08:04:11;101626.88;;;6.89;100.00
50282;BME280;36176;51.506;10.272;2023-02-12T08:06:41;101631.28;;;6.91;100.00
50282;BME280;36176;51.506;10.272;2023-02-12T08:09:11;101625.13;;;6.91;100.00
50282;BME280;36176;51.506;10.272;2023-02-12T08:11:39;101618.13;;;6.90;100.00
50282;BME280;36176;51.506;10.272;2023-02-12T08:14:07;101621.63;;;6.90;100.00
50282;BME280;36176;51.506;10.272;2023-02-12T08:16:38;101620.75;;;6.93;100.00
50282;BME280;36176;51.506;10.272;2023-02-12T08:19:06;101614.63;;;7.00;100.00
50282;BME280;36176;51.506;10.272;2023-02-12T08:21:48;101629.56;;;7.07;100.00
50282;BME280;36176;51.506;10.272;2023-02-12T08:24:15;101632.19;;;7.13;100.00
50282;BME280;36176;51.506;10.272;2023-02-12T08:26:42;101624.31;;;7.19;100.00
50282;BME280;36176;51.506;10.272;2023-02-12T08:29:13;101624.31;;;7.29;100.00
50282;BME280;36176;51.506;10.272;2023-02-12T08:31:45;101629.59;;;7.38;100.00
50282;BME280;36176;51.506;10.272;2023-02-12T08:34:24;101615.50;;;7.46;100.00
50282;BME280;36176;51.506;10.272;2023-02-12T08:36:52;101627.84;;;7.52;100.00
50282;BME280;36176;51.506;10.272;2023-02-12T08:39:21;101624.28;;;7.56;100.00
50282;BME280;36176;51.506;10.272;2023-02-12T08:41:48;101620.81;;;7.57;100.00
50282;BME280;36176;51.506;10.272;2023-02-12T08:44:15;101624.31;;;7.59;100.00
50282;BME280;36176;51.506;10.272;2023-02-12T08:46:45;101626.06;;;7.66;100.00
50282;BME280;36176;51.506;10.272;2023-02-12T08:49:16;101632.22;;;7.67;100.00
50282;BME280;36176;51.506;10.272;2023-02-12T08:51:45;101635.72;;;7.71;100.00
50282;BME280;36176;51.506;10.272;2023-02-12T08:54:17;101637.50;;;7.72;100.00
50282;BME280;36176;51.506;10.272;2023-02-12T08:56:44;101629.59;;;7.69;100.00
50282;BME280;36176;51.506;10.272;2023-02-12T08:59:13;101636.63;;;7.70;100.00
50282;BME280;36176;51.506;10.272;2023-02-12T09:01:41;101640.13;;;7.70;100.00
50282;BME280;36176;51.506;10.272;2023-02-12T09:04:23;101646.28;;;7.71;100.00
50282;BME280;36176;51.506;10.272;2023-02-12T09:06:50;101646.31;;;7.69;100.00
50282;BME280;36176;51.506;10.272;2023-02-12T09:09:18;101651.56;;;7.75;100.00
50282;BME280;36176;51.506;10.272;2023-02-12T09:11:46;101654.19;;;7.81;100.00
50282;BME280;36176;51.506;10.272;2023-02-12T09:14:14;101662.09;;;7.87;100.00
50282;BME280;36176;51.506;10.272;2023-02-12T09:16:42;101662.09;;;7.84;100.00
50282;BME280;36176;51.506;10.272;2023-02-12T09:19:11;101669.13;;;7.90;100.00
50282;BME280;36176;51.506;10.272;2023-02-12T09:21:39;101670.03;;;7.94;100.00
50282;BME280;36176;51.506;10.272;2023-02-12T09:24:07;101676.19;;;7.91;100.00
50282;BME280;36176;51.506;10.272;2023-02-12T09:26:34;101677.94;;;7.94;100.00
50282;BME280;36176;51.506;10.272;2023-02-12T09:29:02;101677.03;;;7.90;100.00
50282;BME280;36176;51.506;10.272;2023-02-12T09:31:31;101670.91;;;7.89;100.00
50282;BME280;36176;51.506;10.272;2023-02-12T09:34:01;101670.03;;;7.94;100.00
50282;BME280;36176;51.506;10.272;2023-02-12T09:36:28;101671.78;;;7.90;100.00
50282;BME280;36176;51.506;10.272;2023-02-12T09:38:55;101674.44;;;7.85;100.00
50282;BME280;36176;51.506;10.272;2023-02-12T09:44:10;101673.56;;;7.83;100.00
50282;BME280;36176;51.506;10.272;2023-02-12T09:47:19;101678.84;;;7.88;100.00
50282;BME280;36176;51.506;10.272;2023-02-12T09:52:50;101677.03;;;8.08;100.00
50282;BME280;36176;51.506;10.272;2023-02-12T09:55:18;101681.41;;;8.16;100.00
50282;BME280;36176;51.506;10.272;2023-02-12T09:57:48;101689.31;;;8.23;100.00
50282;BME280;36176;51.506;10.272;2023-02-12T10:00:22;101692.84;;;8.36;100.00
50282;BME280;36176;51.506;10.272;2023-02-12T10:02:52;101685.81;;;8.43;100.00
50282;BME280;36176;51.506;10.272;2023-02-12T10:05:24;101684.91;;;8.50;100.00
50282;BME280;36176;51.506;10.272;2023-02-12T10:08:34;101687.50;;;8.58;100.00
50282;BME280;36176;51.506;10.272;2023-02-12T10:17:02;101697.16;;;8.66;98.70
50282;BME280;36176;51.506;10.272;2023-02-12T10:19:39;101694.53;;;8.65;99.13
50282;BME280;36176;51.506;10.272;2023-02-12T10:22:25;101691.94;;;8.52;98.76
50282;BME280;36176;51.506;10.272;2023-02-12T10:24:58;101699.00;;;8.44;98.61
50282;BME280;36176;51.506;10.272;2023-02-12T10:30:21;101691.94;;;8.32;100.00
50282;BME280;36176;51.506;10.272;2023-02-12T10:32:55;101689.31;;;8.31;99.88
50282;BME280;36176;51.506;10.272;2023-02-12T10:35:24;101692.84;;;8.27;99.53
50282;BME280;36176;51.506;10.272;2023-02-12T10:38:13;101693.72;;;8.34;99.59
50282;BME280;36176;51.506;10.272;2023-02-12T10:40:45;101696.38;;;8.29;99.64
50282;BME280;36176;51.506;10.272;2023-02-12T10:43:12;101699.00;;;8.30;99.67
50282;BME280;36176;51.506;10.272;2023-02-12T10:45:41;101698.09;;;8.38;99.76
50282;BME280;36176;51.506;10.272;2023-02-12T10:48:12;101688.44;;;8.43;99.29
50282;BME280;36176;51.506;10.272;2023-02-12T10:51:03;101689.31;;;8.43;98.22
50282;BME280;36176;51.506;10.272;2023-02-12T10:53:44;101684.00;;;8.51;98.51
50282;BME280;36176;51.506;10.272;2023-02-12T10:56:20;101697.19;;;8.60;98.72
50282;BME280;36176;51.506;10.272;2023-02-12T11:01:34;101692.75;;;8.70;97.91
50282;BME280;36176;51.506;10.272;2023-02-12T11:04:28;101690.13;;;8.67;97.23
50282;BME280;36176;51.506;10.272;2023-02-12T11:07:01;101691.88;;;8.68;97.92
50282;BME280;36176;51.506;10.272;2023-02-12T11:09:40;101693.59;;;8.73;97.78
50282;BME280;36176;51.506;10.272;2023-02-12T11:12:20;101688.34;;;8.70;96.95
50282;BME280;36176;51.506;10.272;2023-02-12T11:14:54;101691.88;;;8.69;97.32
50282;BME280;36176;51.506;10.272;2023-02-12T11:17:35;101688.34;;;8.70;96.60
50282;BME280;36176;51.506;10.272;2023-02-12T11:22:57;101680.44;;;8.67;96.55
50282;BME280;36176;51.506;10.272;2023-02-12T11:25:28;101676.91;;;8.65;96.62
50282;BME280;36176;51.506;10.272;2023-02-12T11:28:16;101676.03;;;8.65;96.72
50282;BME280;36176;51.506;10.272;2023-02-12T11:30:50;101669.84;;;8.66;97.39
50282;BME280;36176;51.506;10.272;2023-02-12T11:33:35;101673.34;;;8.74;96.66
50282;BME280;36176;51.506;10.272;2023-02-12T11:36:26;101667.16;;;8.78;96.70
50282;BME280;36176;51.506;10.272;2023-02-12T11:38:57;101675.94;;;8.83;96.31
50282;BME280;36176;51.506;10.272;2023-02-12T11:41:36;101675.06;;;8.83;96.24
50282;BME280;36176;51.506;10.272;2023-02-12T11:44:26;101668.03;;;8.82;96.32
50282;BME280;36176;51.506;10.272;2023-02-12T11:47:01;101667.16;;;8.81;96.39
50282;BME280;36176;51.506;10.272;2023-02-12T11:49:36;101676.84;;;8.84;96.27
50282;BME280;36176;51.506;10.272;2023-02-12T11:52:04;101675.94;;;8.86;95.83
50282;BME280;36176;51.506;10.272;2023-02-12T11:54:40;101675.03;;;8.92;95.86
50282;BME280;36176;51.506;10.272;2023-02-12T11:57:44;101674.13;;;8.93;95.14
50282;BME280;36176;51.506;10.272;2023-02-12T12:00:40;101671.47;;;8.94;95.62
50282;BME280;36176;51.506;10.272;2023-02-12T12:03:15;101665.31;;;8.92;95.31
50282;BME280;36176;51.506;10.272;2023-02-12T12:05:47;101674.19;;;8.88;95.41
50282;BME280;36176;51.506;10.272;2023-02-12T12:11:25;101667.09;;;8.86;95.36
50282;BME280;36176;51.506;10.272;2023-02-12T12:14:00;101669.78;;;8.84;95.93
50282;BME280;36176;51.506;10.272;2023-02-12T12:16:43;101667.09;;;8.86;95.84
50282;BME280;36176;51.506;10.272;2023-02-12T12:19:39;101667.13;;;8.83;95.67
50282;BME280;36176;51.506;10.272;2023-02-12T12:22:42;101657.47;;;8.76;95.91
50282;BME280;36176;51.506;10.272;2023-02-12T12:36:27;101658.44;;;8.58;96.14
50282;BME280;36176;51.506;10.272;2023-02-12T12:44:55;101663.66;;;8.73;96.98
50282;BME280;36176;51.506;10.272;2023-02-12T12:47:39;101660.09;;;8.79;95.94
50282;BME280;36176;51.506;10.272;2023-02-12T12:52:59;101659.22;;;8.84;95.92
50282;BME280;36176;51.506;10.272;2023-02-12T13:06:49;101653.06;;;8.78;95.46
50282;BME280;36176;51.506;10.272;2023-02-12T13:14:38;101645.97;;;8.87;95.49
50282;BME280;36176;51.506;10.272;2023-02-12T13:17:17;101644.25;;;8.82;95.28
50282;BME280;36176;51.506;10.272;2023-02-12T13:22:56;101638.94;;;8.80;94.81
50282;BME280;36176;51.506;10.272;2023-02-12T13:25:44;101638.06;;;8.78;95.07
50282;BME280;36176;51.506;10.272;2023-02-12T13:31:06;101638.09;;;8.80;95.91
50282;BME280;36176;51.506;10.272;2023-02-12T13:33:56;101632.78;;;8.81;95.34
50282;BME280;36176;51.506;10.272;2023-02-12T13:36:24;101637.22;;;8.79;94.85
50282;BME280;36176;51.506;10.272;2023-02-12T13:39:11;101634.56;;;8.78;95.22
50282;BME280;36176;51.506;10.272;2023-02-12T13:41:46;101634.56;;;8.76;95.20
50282;BME280;36176;51.506;10.272;2023-02-12T13:44:18;101630.16;;;8.78;95.61
50282;BME280;36176;51.506;10.272;2023-02-12T13:57:25;101619.53;;;8.87;95.70
50282;BME280;36176;51.506;10.272;2023-02-12T13:59:54;101617.75;;;8.88;95.63
50282;BME280;36176;51.506;10.272;2023-02-12T14:05:20;101617.75;;;8.89;95.46
50282;BME280;36176;51.506;10.272;2023-02-12T14:07:51;101619.53;;;8.86;94.91
50282;BME280;36176;51.506;10.272;2023-02-12T14:10:22;101616.00;;;8.88;95.03
50282;BME280;36176;51.506;10.272;2023-02-12T14:12:50;101613.34;;;8.90;95.33
50282;BME280;36176;51.506;10.272;2023-02-12T14:15:32;101613.31;;;8.93;94.59
50282;BME280;36176;51.506;10.272;2023-02-12T14:23:40;101617.72;;;8.94;94.38
50282;BME280;36176;51.506;10.272;2023-02-12T14:26:19;101621.25;;;8.96;94.14
50282;BME280;36176;51.506;10.272;2023-02-12T14:33:47;101616.84;;;8.90;93.74
50282;BME280;36176;51.506;10.272;2023-02-12T14:36:36;101614.25;;;8.87;93.67
50282;BME280;36176;51.506;10.272;2023-02-12T14:41:53;101621.31;;;8.84;93.86
50282;BME280;36176;51.506;10.272;2023-02-12T14:46:56;101627.53;;;8.73;94.60
50282;BME280;36176;51.506;10.272;2023-02-12T14:49:26;101616.97;;;8.70;93.72
50282;BME280;36176;51.506;10.272;2023-02-12T14:56:58;101623.16;;;8.66;94.67
50282;BME280;36176;51.506;10.272;2023-02-12T14:59:31;101619.69;;;8.60;94.87
50282;BME280;36176;51.506;10.272;2023-02-12T15:01:59;101618.81;;;8.55;95.07
50282;BME280;36176;51.506;10.272;2023-02-12T15:04:34;101620.63;;;8.45;95.08
50282;BME280;36176;51.506;10.272;2023-02-12T15:07:09;101617.09;;;8.38;95.16
50282;BME280;36176;51.506;10.272;2023-02-12T15:09:46;101623.28;;;8.40;94.92
50282;BME280;36176;51.506;10.272;2023-02-12T15:12:19;101622.41;;;8.40;94.87
50282;BME280;36176;51.506;10.272;2023-02-12T15:14:55;101622.38;;;8.35;95.19
50282;BME280;36176;51.506;10.272;2023-02-12T15:17:31;101618.00;;;8.34;95.24
50282;BME280;36176;51.506;10.272;2023-02-12T15:20:06;101625.06;;;8.27;94.86
50282;BME280;36176;51.506;10.272;2023-02-12T15:22:39;101628.59;;;8.22;94.39